Time;durP1;ratioP1;P1;durP2;ratioP2;P2;SDS_P1;SDS_P2;PMS_P1;PMS_P2;Temp;Humidity;BMP_temperature;BMP_pressure;BME280_temperature;BME280_humidity;BME280_pressure;Samples;Min_cycle;Max_cycle;Signal;HPM_P1;HPM_P2
2022/12/05 00:01:42;;;;;;;0.00;0.00;;;;;;;4.69;79.28;100673.97;6069086;23;20025;-74
2022/12/05 00:04:10;;;;;;;0.00;0.00;;;;;;;4.73;79.79;100675.16;6122642;23;20011;-74
2022/12/05 00:06:37;;;;;;;0.00;0.00;;;;;;;4.77;79.73;100683.69;6118887;23;20080;-76
2022/12/05 00:09:04;;;;;;;0.00;0.00;;;;;;;4.81;80.28;100677.59;6098189;23;20005;-74
2022/12/05 00:11:32;;;;;;;0.00;0.00;;;;;;;4.82;79.37;100684.69;6145261;23;20017;-74
2022/12/05 00:14:00;;;;;;;0.00;0.00;;;;;;;4.79;79.22;100689.69;6102123;23;20010;-75
2022/12/05 00:16:31;;;;;;;0.00;0.00;;;;;;;4.82;79.37;100678.41;6126225;23;20373;-75
2022/12/05 00:18:59;;;;;;;0.00;0.00;;;;;;;4.79;79.05;100678.84;6152628;23;20009;-73
2022/12/05 00:21:27;;;;;;;0.00;0.00;;;;;;;4.82;80.26;100673.84;6179178;23;20007;-74
2022/12/05 00:23:55;;;;;;;0.00;0.00;;;;;;;4.79;79.68;100678.84;6178546;23;20001;-74
2022/12/05 00:26:21;;;;;;;0.00;0.00;;;;;;;4.77;79.98;100672.84;6151214;23;20001;-73
2022/12/05 00:28:47;;;;;;;0.00;0.00;;;;;;;4.79;80.03;100673.44;6125545;23;20070;-74
2022/12/05 00:31:19;;;;;;;0.00;0.00;;;;;;;4.81;80.36;100682.19;6178736;23;20372;-74
2022/12/05 00:33:45;;;;;;;0.00;0.00;;;;;;;4.73;79.79;100680.56;6149959;23;20008;-75
2022/12/05 00:36:16;;;;;;;0.00;0.00;;;;;;;4.63;79.38;100670.25;6152986;23;20012;-72
2022/12/05 00:38:42;;;;;;;0.00;0.00;;;;;;;4.68;80.34;100689.34;6148539;23;20043;-74
2022/12/05 00:41:13;;;;;;;0.00;0.00;;;;;;;4.65;80.36;100678.97;6180233;23;20013;-73
2022/12/05 00:43:39;;;;;;;0.00;0.00;;;;;;;4.64;79.76;100676.47;6151835;23;20036;-73
2022/12/05 00:46:12;;;;;;;0.10;0.10;;;;;;;4.62;80.24;100679.41;6153580;23;20433;-75
2022/12/05 00:48:38;;;;;;;0.00;0.00;;;;;;;4.61;80.59;100683.16;6155172;23;20009;-74
2022/12/05 00:51:09;;;;;;;0.00;0.00;;;;;;;4.62;80.30;100679.41;6176807;23;20440;-74
2022/12/05 00:53:35;;;;;;;0.00;0.00;;;;;;;4.67;79.81;100686.88;6153678;23;20327;-74
2022/12/05 00:56:06;;;;;;;0.00;0.00;;;;;;;4.63;80.39;100682.94;6127136;23;20032;-74
2022/12/05 00:58:31;;;;;;;0.00;0.00;;;;;;;4.61;79.97;100677.75;6151780;23;20009;-78
2022/12/05 01:01:03;;;;;;;0.10;0.10;;;;;;;4.59;80.16;100673.63;6128817;23;20040;-74
2022/12/05 01:03:29;;;;;;;0.00;0.00;;;;;;;4.53;81.14;100669.91;6128299;23;20128;-74
2022/12/05 01:05:54;;;;;;;0.00;0.00;;;;;;;4.57;80.85;100675.69;6154609;23;20436;-74
2022/12/05 01:08:20;;;;;;;0.00;0.00;;;;;;;4.60;80.59;100681.53;6101604;23;20012;-73
2022/12/05 01:10:54;;;;;;;0.00;0.00;;;;;;;4.57;80.97;100667.56;6103352;23;20013;-74
2022/12/05 01:13:20;;;;;;;0.00;0.00;;;;;;;4.70;81.51;100687.28;6148191;23;20004;-74
2022/12/05 01:15:46;;;;;;;0.00;0.00;;;;;;;4.67;81.71;100687.72;6152498;23;20017;-74
2022/12/05 01:18:11;;;;;;;0.00;0.00;;;;;;;4.70;80.61;100689.13;6125690;23;20036;-75
2022/12/05 01:20:41;;;;;;;0.00;0.00;;;;;;;4.69;81.55;100696.44;6126250;23;20084;-74
2022/12/05 01:23:06;;;;;;;0.00;0.00;;;;;;;4.61;81.33;100688.59;6127956;23;20453;-77
2022/12/05 01:25:32;;;;;;;0.00;0.00;;;;;;;4.64;81.00;100701.69;6125135;23;20009;-75
2022/12/05 01:27:58;;;;;;;0.00;0.00;;;;;;;4.64;82.06;100703.56;6153959;23;20005;-74
2022/12/05 01:30:26;;;;;;;0.00;0.00;;;;;;;4.68;81.89;100705.63;6100216;23;20525;-75
2022/12/05 01:32:51;;;;;;;0.03;0.03;;;;;;;4.69;81.51;100711.88;6154959;23;20032;-74
2022/12/05 01:35:17;;;;;;;0.00;0.00;;;;;;;4.49;81.60;100684.94;6124696;23;20424;-74
2022/12/05 01:37:43;;;;;;;0.00;0.00;;;;;;;4.54;81.73;100698.63;6128611;23;20130;-74
2022/12/05 01:40:08;;;;;;;0.00;0.00;;;;;;;4.58;81.85;100705.28;6151626;23;20009;-74
2022/12/05 01:42:34;;;;;;;0.00;0.00;;;;;;;4.63;81.82;100719.00;6126871;23;20317;-74
2022/12/05 01:45:06;;;;;;;0.00;0.00;;;;;;;4.60;81.86;100714.03;6128625;23;20009;-75
2022/12/05 01:47:35;;;;;;;0.00;0.00;;;;;;;4.64;82.31;100714.41;6148932;23;20093;-74
2022/12/05 01:50:01;;;;;;;0.00;0.00;;;;;;;4.63;81.75;100719.00;6154097;23;20040;-74
2022/12/05 01:52:29;;;;;;;0.00;0.00;;;;;;;4.58;82.39;100716.09;6125349;23;20031;-75
2022/12/05 01:55:01;;;;;;;0.00;0.00;;;;;;;4.60;82.56;100719.44;6153275;23;20008;-74
2022/12/05 01:57:27;;;;;;;0.00;0.00;;;;;;;4.59;81.97;100720.50;6148111;23;20084;-75
2022/12/05 01:59:59;;;;;;;0.00;0.00;;;;;;;4.56;82.51;100718.22;6127588;23;20040;-75
2022/12/05 02:02:32;;;;;;;0.00;0.00;;;;;;;4.53;82.37;100713.25;6150355;23;20011;-75
2022/12/05 02:05:06;;;;;;;0.00;0.00;;;;;;;4.58;82.28;100732.34;6149639;23;20016;-73
2022/12/05 02:07:33;;;;;;;0.00;0.00;;;;;;;4.47;82.64;100714.13;6180439;23;20028;-74
2022/12/05 02:09:59;;;;;;;0.00;0.00;;;;;;;4.53;82.51;100719.47;6123116;23;20051;-72
2022/12/05 02:12:25;;;;;;;0.00;0.00;;;;;;;4.47;82.55;100704.13;6182497;23;20001;-75
2022/12/05 02:15:47;;;;;;;0.00;0.00;;;;;;;4.54;82.60;100720.31;6119826;23;20028;-77
2022/12/05 02:18:41;;;;;;;0.00;0.00;;;;;;;4.62;82.88;100720.03;6029659;23;20011;-74
2022/12/05 02:21:38;;;;;;;0.00;0.00;;;;;;;4.62;83.58;100725.47;6036266;23;20066;-76
2022/12/05 02:24:34;;;;;;;0.00;0.00;;;;;;;4.61;82.48;100726.50;6137625;23;20014;-74
2022/12/05 02:27:27;;;;;;;0.00;0.00;;;;;;;4.59;82.89;100725.91;6142411;23;20014;-75
2022/12/05 02:29:59;;;;;;;0.00;0.00;;;;;;;4.57;82.80;100724.47;6148283;23;20009;-74
2022/12/05 02:33:03;;;;;;;0.00;0.00;;;;;;;4.49;83.34;100723.66;6144090;23;20092;-75
2022/12/05 02:35:38;;;;;;;0.00;0.00;;;;;;;4.54;84.21;100726.56;6149134;23;21019;-73
2022/12/05 02:38:18;;;;;;;;;;;;;;;4.58;83.75;100726.94;6154673;23;20001;-74
2022/12/05 02:40:46;;;;;;;0.00;0.00;;;;;;;4.60;84.09;100724.00;6147954;23;19916;-74
2022/12/05 02:43:22;;;;;;;0.00;0.00;;;;;;;4.57;83.45;100725.31;6152757;23;20012;-74
2022/12/05 02:45:53;;;;;;;0.00;0.00;;;;;;;4.52;83.63;100730.53;6147084;23;20009;-73
2022/12/05 02:48:24;;;;;;;0.00;0.00;;;;;;;4.46;83.87;100731.41;6180037;23;20084;-75
2022/12/05 02:50:52;;;;;;;0.00;0.00;;;;;;;4.46;84.79;100734.13;6148930;23;20032;-74
2022/12/05 02:53:20;;;;;;;0.10;0.10;;;;;;;4.47;84.30;100741.22;6179181;23;20051;-74
2022/12/05 02:55:49;;;;;;;0.00;0.00;;;;;;;4.47;84.73;100746.63;6149307;23;20028;-74
2022/12/05 02:58:21;;;;;;;0.00;0.00;;;;;;;4.44;84.90;100730.78;6127554;23;20017;-74
2022/12/05 03:00:52;;;;;;;0.00;0.00;;;;;;;4.48;84.24;100732.00;6152054;23;20005;-75
2022/12/05 03:03:21;;;;;;;0.00;0.00;;;;;;;4.49;85.11;100730.97;6147960;23;20001;-74
2022/12/05 03:06:00;;;;;;;0.00;0.00;;;;;;;4.47;84.69;100725.78;6152142;23;20324;-74
2022/12/05 03:08:31;;;;;;;0.00;0.00;;;;;;;4.53;84.50;100735.72;6150784;23;20043;-76
2022/12/05 03:10:59;;;;;;;0.00;0.00;;;;;;;4.51;85.31;100728.88;6153143;23;20429;-74
2022/12/05 03:13:39;;;;;;;0.00;0.00;;;;;;;4.52;85.37;100728.66;6150479;23;20033;-75
2022/12/05 03:16:23;;;;;;;0.00;0.00;;;;;;;4.46;85.37;100724.09;6151690;23;20017;-75
2022/12/05 03:18:55;;;;;;;0.00;0.00;;;;;;;4.52;85.59;100727.81;6148503;23;20048;-74
2022/12/05 03:21:26;;;;;;;0.10;0.10;;;;;;;4.53;86.41;100734.91;6152926;23;20012;-74
2022/12/05 03:23:57;;;;;;;0.00;0.00;;;;;;;4.53;86.50;100729.50;6147569;23;20040;-74
2022/12/05 03:27:00;;;;;;;0.00;0.00;;;;;;;4.49;86.60;100728.25;6150499;23;20048;-75
2022/12/05 03:29:43;;;;;;;0.00;0.00;;;;;;;4.39;86.23;100722.50;6150725;23;20057;-74
2022/12/05 03:32:35;;;;;;;0.00;0.00;;;;;;;4.33;86.83;100719.59;6148229;23;20369;-74
2022/12/05 03:35:11;;;;;;;0.00;0.00;;;;;;;4.45;86.68;100721.63;6153437;23;20009;-74
2022/12/05 03:37:39;;;;;;;0.00;0.00;;;;;;;4.52;87.10;100720.53;6148545;23;20732;-73
2022/12/05 03:40:29;;;;;;;0.00;0.00;;;;;;;4.55;86.92;100727.38;6152961;23;20737;-73
2022/12/05 03:43:09;;;;;;;0.03;0.03;;;;;;;4.49;87.26;100725.56;6179274;23;20000;-75
2022/12/05 03:45:49;;;;;;;0.00;0.00;;;;;;;4.44;88.10;100726.22;6147283;23;19993;-74
2022/12/05 03:48:21;;;;;;;0.00;0.00;;;;;;;4.43;87.99;100738.09;6151084;23;20013;-74
2022/12/05 03:50:50;;;;;;;0.00;0.00;;;;;;;4.43;88.51;100729.16;6145777;23;20723;-73
2022/12/05 03:53:21;;;;;;;0.00;0.00;;;;;;;4.45;89.13;100735.97;6152335;23;20001;-74
2022/12/05 03:55:56;;;;;;;0.10;0.10;;;;;;;4.46;88.46;100739.53;6150089;23;20072;-75
2022/12/05 03:58:29;;;;;;;0.00;0.00;;;;;;;4.44;88.56;100737.06;6153649;23;20009;-74
2022/12/05 04:00:58;;;;;;;0.00;0.00;;;;;;;4.47;88.81;100743.91;6154079;23;20000;-75
2022/12/05 04:03:38;;;;;;;0.00;0.00;;;;;;;4.54;89.65;100747.38;6143817;23;20063;-75
2022/12/05 04:06:09;;;;;;;0.08;0.08;;;;;;;4.52;89.01;100749.50;6153092;23;19997;-73
2022/12/05 04:08:41;;;;;;;0.00;0.00;;;;;;;4.60;89.40;100756.53;6150375;23;20010;-76
2022/12/05 04:11:14;;;;;;;0.10;0.10;;;;;;;4.57;89.20;100752.41;6153361;23;20001;-75
2022/12/05 04:13:49;;;;;;;0.00;0.00;;;;;;;4.59;89.24;100753.00;6149623;23;20016;-73
2022/12/05 04:22:30;;;;;;;0.03;0.03;;;;;;;4.48;89.08;100759.09;6181431;23;20059;-75
2022/12/05 04:25:32;;;;;;;0.00;0.00;;;;;;;4.51;89.76;100755.94;6177974;23;19997;-74
2022/12/05 04:28:05;;;;;;;0.00;0.00;;;;;;;4.60;89.40;100779.03;6173860;23;20012;-75
2022/12/05 04:31:03;;;;;;;0.00;0.00;;;;;;;4.62;89.57;100776.13;6147326;23;20008;-75
2022/12/05 04:33:45;;;;;;;0.00;0.00;;;;;;;4.61;89.12;100764.44;6146615;23;20009;-74
2022/12/05 04:36:10;;;;;;;0.00;0.00;;;;;;;4.64;89.87;100766.69;6154229;23;20047;-75
2022/12/05 04:38:53;;;;;;;0.03;0.03;;;;;;;4.64;89.88;100771.28;6151066;23;20001;-74
2022/12/05 04:41:35;;;;;;;0.08;0.08;;;;;;;4.60;89.95;100762.78;6180510;23;20084;-74
2022/12/05 04:44:07;;;;;;;0.00;0.00;;;;;;;4.59;90.04;100749.47;6147289;23;20005;-74
2022/12/05 04:46:33;;;;;;;0.00;0.00;;;;;;;4.67;89.60;100765.44;6181878;23;19997;-74
2022/12/05 04:49:02;;;;;;;0.00;0.00;;;;;;;4.70;89.21;100763.13;6146061;23;20096;-75
2022/12/05 04:51:33;;;;;;;0.03;0.03;;;;;;;4.67;89.74;100763.56;6154177;23;19997;-74
2022/12/05 04:54:09;;;;;;;0.00;0.00;;;;;;;4.69;89.40;100772.31;6147052;23;20340;-76
2022/12/05 04:56:37;;;;;;;0.10;0.10;;;;;;;4.66;89.95;100764.63;6152897;23;20004;-74
2022/12/05 04:59:03;;;;;;;0.00;0.00;;;;;;;4.72;90.01;100776.47;6149133;23;20009;-75
2022/12/05 05:01:38;;;;;;;0.00;0.00;;;;;;;4.76;90.36;100771.41;6133494;23;20019;-74
2022/12/05 05:04:21;;;;;;;0.10;0.10;;;;;;;4.88;89.95;100780.53;6150600;23;20001;-73
2022/12/05 05:06:47;;;;;;;0.00;0.00;;;;;;;4.88;89.50;100772.41;6154056;23;20040;-74
2022/12/05 05:09:12;;;;;;;0.00;0.00;;;;;;;4.76;89.57;100757.88;6154641;23;20309;-74
2022/12/05 05:11:38;;;;;;;0.10;0.10;;;;;;;4.85;89.80;100779.06;6154294;23;20420;-75
2022/12/05 05:14:04;;;;;;;0.00;0.00;;;;;;;4.88;89.99;100781.34;6126492;23;20031;-74
2022/12/05 05:16:33;;;;;;;0.00;0.00;;;;;;;4.89;89.55;100784.88;6129308;23;20044;-75
2022/12/05 05:18:58;;;;;;;0.00;0.00;;;;;;;4.84;89.95;100785.53;6149199;23;20020;-74
2022/12/05 05:21:32;;;;;;;0.00;0.00;;;;;;;4.91;89.33;100793.63;6154123;23;19997;-74
2022/12/05 05:23:58;;;;;;;0.00;0.00;;;;;;;4.89;89.90;100796.56;6147435;23;20344;-74
2022/12/05 05:26:27;;;;;;;0.00;0.00;;;;;;;4.88;90.00;100802.19;6127878;23;20005;-74
2022/12/05 05:28:53;;;;;;;0.00;0.00;;;;;;;4.85;90.22;100797.22;6149879;23;20027;-75
2022/12/05 05:31:19;;;;;;;0.00;0.00;;;;;;;4.76;89.79;100776.84;6152899;23;20471;-74
2022/12/05 05:33:51;;;;;;;0.00;0.00;;;;;;;4.79;89.73;100782.66;6154885;23;20039;-74
2022/12/05 05:36:17;;;;;;;0.00;0.00;;;;;;;4.71;89.89;100770.19;6176598;23;19997;-74
2022/12/05 05:38:47;;;;;;;0.00;0.00;;;;;;;4.87;90.38;100797.81;6153317;23;20001;-74
2022/12/05 05:41:18;;;;;;;0.00;0.00;;;;;;;4.84;89.71;100796.38;6176380;23;20001;-74
2022/12/05 05:43:44;;;;;;;0.00;0.00;;;;;;;4.88;90.33;100796.78;6154736;23;20317;-75
2022/12/05 05:46:11;;;;;;;0.00;0.00;;;;;;;4.86;89.72;100794.28;6175207;23;20059;-74
2022/12/05 05:48:37;;;;;;;0.00;0.00;;;;;;;4.98;90.38;100818.81;6154767;23;20285;-74
2022/12/05 05:51:07;;;;;;;0.00;0.00;;;;;;;4.86;90.42;100799.72;6125712;23;20008;-74
2022/12/05 05:53:33;;;;;;;0.00;0.00;;;;;;;5.01;89.79;100823.78;6155390;23;20403;-75
2022/12/05 05:56:07;;;;;;;0.00;0.00;;;;;;;4.85;89.90;100802.66;6129533;23;20001;-75
2022/12/05 05:58:33;;;;;;;;;;;;;;;5.01;90.42;100829.22;6180435;23;20002;-75
2022/12/05 06:01:10;;;;;;;0.00;0.00;;;;;;;4.93;90.29;100809.69;6156067;23;19910;-75
2022/12/05 06:03:36;;;;;;;0.00;0.00;;;;;;;4.96;89.49;100823.59;6178662;23;20417;-75
2022/12/05 06:06:05;;;;;;;0.00;0.00;;;;;;;4.93;89.54;100825.94;6152981;23;20012;-75
2022/12/05 06:08:32;;;;;;;0.00;0.00;;;;;;;4.87;89.60;100823.03;6149989;23;20001;-76
2022/12/05 06:10:57;;;;;;;0.00;0.00;;;;;;;4.90;90.29;100828.00;6178966;23;20080;-74
2022/12/05 06:13:23;;;;;;;0.00;0.00;;;;;;;4.96;89.93;100836.34;6148433;23;20024;-76
2022/12/05 06:15:48;;;;;;;0.00;0.00;;;;;;;5.05;89.85;100851.28;6127327;23;20447;-75
2022/12/05 06:18:16;;;;;;;0.00;0.00;;;;;;;4.96;90.49;100837.16;6127675;23;20063;-78
2022/12/05 06:20:49;;;;;;;0.00;0.00;;;;;;;5.05;90.41;100852.13;6147414;23;20451;-74
2022/12/05 06:23:15;;;;;;;0.00;0.00;;;;;;;5.01;90.53;100856.31;6180460;23;20015;-74
2022/12/05 06:25:46;;;;;;;0.00;0.00;;;;;;;4.99;90.52;100849.44;6124294;23;20416;-75
2022/12/05 06:28:12;;;;;;;0.00;0.00;;;;;;;4.97;90.67;100840.72;6153187;23;20004;-74
2022/12/05 06:30:37;;;;;;;0.00;0.00;;;;;;;5.11;90.19;100865.84;6150290;23;20048;-74
2022/12/05 06:33:03;;;;;;;0.00;0.00;;;;;;;5.03;90.50;100853.38;6153079;23;20066;-75
2022/12/05 06:35:28;;;;;;;0.00;0.00;;;;;;;4.99;90.72;100842.13;6125489;23;20005;-73
2022/12/05 06:37:54;;;;;;;0.10;0.10;;;;;;;5.11;90.68;100866.69;6178580;23;20012;-73
2022/12/05 06:40:19;;;;;;;0.00;0.00;;;;;;;5.05;90.59;100852.13;6180652;23;20013;-74
2022/12/05 06:42:45;;;;;;;0.00;0.00;;;;;;;5.02;90.14;100849.00;6175934;23;20011;-73
2022/12/05 06:45:13;;;;;;;0.00;0.00;;;;;;;5.00;90.80;100846.50;6179252;23;20061;-74
2022/12/05 06:47:38;;;;;;;0.00;0.00;;;;;;;5.00;90.47;100845.69;6148859;23;20011;-74
2022/12/05 06:50:31;;;;;;;;;;;;;;;;;;;;;
2022/12/05 06:53:29;;;;;;;0.00;0.00;;;;;;;5.17;90.36;100876.66;6152207;23;20088;-75
2022/12/05 06:56:14;;;;;;;;;;;;;;;;;;;;;
2022/12/05 06:58:51;;;;;;;;;;;;;;;;;;;;;
2022/12/05 07:02:06;;;;;;;0.00;0.00;;;;;;;4.90;90.30;100840.75;6150013;23;20088;-74
2022/12/05 07:04:32;;;;;;;0.00;0.00;;;;;;;4.92;91.33;100852.22;6147552;23;20015;-75
2022/12/05 07:08:03;;;;;;;;;;;;;;;;;;;;;
2022/12/05 07:11:00;;;;;;;0.00;0.00;;;;;;;4.84;90.77;100844.34;6081657;23;20501;-75
2022/12/05 07:14:24;;;;;;;0.00;0.00;;;;;;;4.86;91.53;100859.34;6068362;23;20058;-80
2022/12/05 07:18:01;;;;;;;;;;;;;;;;;;;;;
2022/12/05 07:20:39;;;;;;;;;;;;;;;;;;;;;
2022/12/05 07:23:05;;;;;;;0.00;0.00;;;;;;;4.81;91.73;100871.88;6062699;23;20078;-80
2022/12/05 07:26:33;;;;;;;;;;;;;;;;;;;;;
2022/12/05 07:44:14;;;;;;;;;;;;;;;;;;;;;
2022/12/05 07:47:02;;;;;;;0.00;0.00;;;;;;;4.93;91.91;100910.78;5937265;24;20005;-85
2022/12/05 07:50:16;;;;;;;0.00;0.00;;;;;;;4.75;92.01;100889.81;5871364;24;20354;-84
2022/12/05 07:56:20;;;;;;;0.00;0.00;;;;;;;4.71;92.44;100902.94;5841776;24;20048;-84
2022/12/05 07:58:48;;;;;;;0.00;0.00;;;;;;;4.83;92.11;100929.38;5812985;24;20089;-79
2022/12/05 08:01:35;;;;;;;0.00;0.00;;;;;;;4.89;92.67;100942.06;6030600;23;20302;-81
2022/12/05 08:04:00;;;;;;;0.00;0.00;;;;;;;4.82;92.90;100928.56;6112556;23;20095;-78
2022/12/05 08:06:31;;;;;;;0.00;0.00;;;;;;;4.83;92.13;100932.09;6150569;23;20009;-82
2022/12/05 08:08:57;;;;;;;0.00;0.00;;;;;;;4.77;92.93;100924.81;6156437;23;20437;-81
2022/12/05 08:11:29;;;;;;;0.00;0.00;;;;;;;4.80;92.81;100935.22;6155310;23;20009;-79
2022/12/05 08:13:55;;;;;;;0.00;0.00;;;;;;;4.84;92.44;100940.00;6158563;23;20016;-81
2022/12/05 08:16:26;;;;;;;0.00;0.00;;;;;;;4.86;93.10;100942.50;6184029;23;20021;-79
2022/12/05 08:19:06;;;;;;;;;;;;;;;;;;;;;
2022/12/05 08:21:40;;;;;;;0.00;0.00;;;;;;;4.74;92.58;100925.25;6185406;23;20088;-81
2022/12/05 08:24:39;;;;;;;;;;;;;;;;;;;;;
2022/12/05 08:27:14;;;;;;;0.00;0.00;;;;;;;4.85;93.32;100938.13;6183126;23;20503;-81
2022/12/05 08:29:47;;;;;;;0.00;0.00;;;;;;;4.84;92.76;100939.19;6158172;23;20000;-81
2022/12/05 08:32:17;;;;;;;0.00;0.00;;;;;;;4.98;93.20;100954.34;6156932;23;20019;-80
2022/12/05 08:34:43;;;;;;;0.00;0.00;;;;;;;4.90;92.69;100941.03;6159956;23;20564;-80
2022/12/05 08:37:11;;;;;;;0.00;0.00;;;;;;;4.94;92.90;100942.25;6154564;23;20017;-79
2022/12/05 08:39:36;;;;;;;0.00;0.00;;;;;;;5.00;92.98;100940.56;6159268;23;20372;-80
2022/12/05 08:42:04;;;;;;;0.00;0.00;;;;;;;5.05;92.51;100944.28;6188132;23;20001;-81
2022/12/05 08:44:46;;;;;;;0.00;0.00;;;;;;;5.05;92.50;100944.28;6136859;23;20009;-81
2022/12/05 08:47:11;;;;;;;0.00;0.00;;;;;;;5.13;92.63;100956.75;6158103;23;20054;-78
2022/12/05 08:49:37;;;;;;;0.00;0.00;;;;;;;5.19;92.28;100960.47;6132614;23;20064;-80
2022/12/05 08:52:02;;;;;;;0.00;0.00;;;;;;;5.16;92.49;100944.66;6133215;23;20424;-78
2022/12/05 08:54:28;;;;;;;0.00;0.00;;;;;;;5.21;92.38;100959.22;6129758;23;20069;-79
2022/12/05 08:56:53;;;;;;;0.00;0.00;;;;;;;5.27;91.94;100957.53;6136686;23;20368;-79
2022/12/05 08:59:19;;;;;;;0.00;0.00;;;;;;;5.20;92.33;100940.47;6183636;23;20618;-79
2022/12/05 09:01:44;;;;;;;0.00;0.00;;;;;;;5.32;91.98;100960.41;6158679;23;20005;-80
2022/12/05 09:04:19;;;;;;;0.00;0.00;;;;;;;5.17;91.80;100940.88;6159872;23;20020;-81
2022/12/05 09:06:47;;;;;;;0.00;0.00;;;;;;;5.14;91.57;100931.31;6139423;23;20013;-80
2022/12/05 09:09:29;;;;;;;;;;;;;;;;;;;;;
2022/12/05 09:11:56;;;;;;;0.00;0.00;;;;;;;5.33;91.80;100948.50;6185443;23;20435;-81
2022/12/05 09:14:24;;;;;;;0.00;0.00;;;;;;;5.38;92.02;100950.56;6190123;23;20013;-80
2022/12/05 09:16:56;;;;;;;0.00;0.00;;;;;;;5.31;91.51;100942.47;6100294;23;20101;-80
2022/12/05 09:19:26;;;;;;;0.10;0.10;;;;;;;5.48;91.95;100967.19;6106996;23;20037;-80
2022/12/05 09:21:52;;;;;;;0.00;0.00;;;;;;;5.37;91.15;100957.88;6125180;23;20009;-80
2022/12/05 09:24:25;;;;;;;0.00;0.00;;;;;;;5.46;91.17;100972.00;6152237;23;20052;-77
2022/12/05 09:26:51;;;;;;;0.00;0.00;;;;;;;5.54;90.66;100979.88;6118814;23;20050;-78
2022/12/05 09:29:26;;;;;;;;;;;;;;;;;;;;;
2022/12/05 09:31:54;;;;;;;0.00;0.00;;;;;;;5.55;90.59;100970.69;6149780;23;20080;-78
2022/12/05 09:34:20;;;;;;;0.10;0.10;;;;;;;5.64;90.19;100973.97;6152133;23;20009;-77
2022/12/05 09:37:00;;;;;;;;;;;;;;;;;;;;;
2022/12/05 09:39:26;;;;;;;0.00;0.00;;;;;;;5.76;90.26;100988.47;6133212;23;20103;-77
2022/12/05 09:42:19;;;;;;;0.00;0.00;;;;;;;5.79;89.09;100986.38;6179606;23;20025;-77
2022/12/05 09:45:05;;;;;;;0.00;0.00;;;;;;;5.80;89.05;100988.03;6153882;23;20087;-77
2022/12/05 09:48:01;;;;;;;0.00;0.00;;;;;;;5.84;88.76;100995.53;6183511;23;20028;-83
2022/12/05 09:50:40;;;;;;;0.00;0.00;;;;;;;5.92;89.43;100983.56;6156627;23;20015;-80
2022/12/05 09:53:31;;;;;;;0.00;0.00;;;;;;;5.92;88.93;100965.38;6154912;23;20085;-81
2022/12/05 09:56:04;;;;;;;0.00;0.00;;;;;;;6.05;88.43;100967.19;6150506;23;20322;-80
2022/12/05 09:58:38;;;;;;;0.00;0.00;;;;;;;6.29;88.36;100991.81;6155994;23;20447;-78
2022/12/05 10:01:23;;;;;;;;;;;;;;;6.40;87.16;100985.66;6152624;23;20600;-78
2022/12/05 10:04:14;;;;;;;0.00;0.00;;;;;;;6.48;86.42;100979.09;6154303;23;19924;-79
2022/12/05 10:06:50;;;;;;;0.00;0.00;;;;;;;6.56;86.20;100969.84;6155339;23;20080;-78
2022/12/05 10:09:37;;;;;;;0.00;0.00;;;;;;;6.89;86.04;100993.06;6179008;23;20012;-81
2022/12/05 10:12:12;;;;;;;0.00;0.00;;;;;;;7.21;84.85;100987.44;6152010;23;20428;-79
2022/12/05 10:15:00;;;;;;;;;;;;;;;7.91;84.31;100997.72;6154458;23;20013;-78
2022/12/05 10:17:35;;;;;;;0.00;0.00;;;;;;;8.24;81.78;100992.78;6120705;23;19908;-80
2022/12/05 10:20:12;;;;;;;0.00;0.00;;;;;;;8.24;80.24;100981.91;6154620;23;20455;-78
2022/12/05 10:22:49;;;;;;;0.00;0.00;;;;;;;8.29;79.37;100998.34;6151125;23;20055;-80
2022/12/05 10:25:24;;;;;;;0.00;0.00;;;;;;;8.10;79.64;100982.09;6151127;23;20330;-78
2022/12/05 10:27:56;;;;;;;0.00;0.00;;;;;;;7.98;79.05;100992.16;6156707;23;20009;-78
2022/12/05 10:30:32;;;;;;;0.00;0.00;;;;;;;7.90;79.18;100997.94;6176785;23;20012;-78
2022/12/05 10:33:01;;;;;;;0.00;0.00;;;;;;;7.93;79.29;101001.06;6157659;23;20011;-79
2022/12/05 10:35:33;;;;;;;0.00;0.00;;;;;;;7.86;79.69;101000.31;6152959;23;20269;-78
2022/12/05 10:38:03;;;;;;;0.00;0.00;;;;;;;8.06;79.39;100989.13;6156047;23;20009;-77
2022/12/05 10:40:47;;;;;;;;;;;;;;;;;;;;;
2022/12/05 10:43:25;;;;;;;0.03;0.03;;;;;;;8.40;78.36;100986.63;6184179;23;20087;-80
2022/12/05 10:45:50;;;;;;;0.00;0.00;;;;;;;8.48;77.38;100990.91;6152406;23;20451;-81
2022/12/05 10:48:33;;;;;;;0.00;0.00;;;;;;;8.49;77.71;101001.56;6182383;23;20000;-80
2022/12/05 10:51:03;;;;;;;0.00;0.00;;;;;;;8.32;77.61;100976.06;6151221;23;20091;-79
2022/12/05 10:53:40;;;;;;;0.00;0.00;;;;;;;8.20;77.84;100960.53;6157452;23;20474;-79
2022/12/05 10:56:54;;;;;;;0.00;0.00;;;;;;;8.33;78.13;100983.19;6179139;23;20001;-80
2022/12/05 10:59:49;;;;;;;0.00;0.00;;;;;;;8.49;77.32;100987.94;6139643;23;20009;-80
2022/12/05 11:02:25;;;;;;;0.00;0.00;;;;;;;8.85;77.32;100968.81;6143719;23;20013;-81
2022/12/05 11:04:51;;;;;;;0.00;0.00;;;;;;;9.68;75.13;100984.81;6160793;23;20021;-81
2022/12/05 11:07:40;;;;;;;0.00;0.00;;;;;;;10.16;72.62;100961.56;6112537;23;20013;-82
2022/12/05 11:10:29;;;;;;;0.10;0.10;;;;;;;10.90;71.04;100970.56;6155077;23;20007;-81
2022/12/05 11:13:05;;;;;;;0.00;0.00;;;;;;;12.37;68.14;100983.19;6155476;23;20008;-76
2022/12/05 11:15:34;;;;;;;0.00;0.00;;;;;;;13.92;63.83;100994.72;6149215;23;20147;-76
2022/12/05 11:18:27;;;;;;;0.00;0.00;;;;;;;14.44;60.47;100990.81;6156595;23;20037;-80
2022/12/05 11:20:53;;;;;;;0.00;0.00;;;;;;;14.16;60.34;100991.41;6155973;23;20009;-80
2022/12/05 11:23:27;;;;;;;0.00;0.00;;;;;;;13.73;60.00;100997.19;6157252;23;20005;-80
2022/12/05 11:25:59;;;;;;;0.00;0.00;;;;;;;13.41;60.55;100990.78;6181052;23;20101;-77
2022/12/05 11:28:34;;;;;;;0.00;0.00;;;;;;;13.57;60.90;101005.38;6130543;23;20015;-80
2022/12/05 11:30:59;;;;;;;0.00;0.00;;;;;;;13.91;59.58;100998.56;6183047;23;20389;-77
2022/12/05 11:33:31;;;;;;;0.00;0.00;;;;;;;14.03;59.27;101004.63;6149605;23;20016;-76
2022/12/05 11:36:04;;;;;;;0.00;0.00;;;;;;;13.67;59.11;100988.09;6153135;23;20012;-77
2022/12/05 11:38:33;;;;;;;0.00;0.00;;;;;;;13.33;59.53;100985.81;6149134;23;20483;-77
2022/12/05 11:41:04;;;;;;;0.00;0.00;;;;;;;13.05;60.24;101004.41;6153732;23;20622;-77
2022/12/05 11:44:05;;;;;;;0.00;0.00;;;;;;;12.59;62.26;100995.94;6149686;23;20009;-78
2022/12/05 11:47:24;;;;;;;0.00;0.00;;;;;;;12.11;63.15;101006.03;6060193;23;20034;-77
2022/12/05 11:50:14;;;;;;;0.00;0.00;;;;;;;11.46;63.56;101000.47;6131655;23;20009;-80
2022/12/05 11:52:46;;;;;;;0.00;0.00;;;;;;;11.04;64.79;100998.34;6182447;23;20028;-81
2022/12/05 11:55:29;;;;;;;0.00;0.00;;;;;;;10.71;66.26;100992.75;6152670;23;20009;-79
2022/12/05 11:58:19;;;;;;;;;;;;;;;;;;;;;
2022/12/05 12:01:20;;;;;;;0.00;0.00;;;;;;;10.33;68.45;100982.59;6180067;23;20072;-80
2022/12/05 12:04:06;;;;;;;0.00;0.00;;;;;;;10.27;68.57;100985.25;6176519;23;20060;-80
2022/12/05 12:06:39;;;;;;;0.00;0.00;;;;;;;10.02;68.81;100976.69;6154743;23;20005;-80
2022/12/05 12:09:32;;;;;;;0.00;0.00;;;;;;;10.09;69.77;100999.16;6180028;23;20012;-80
2022/12/05 12:12:22;;;;;;;0.00;0.00;;;;;;;10.09;70.09;100993.69;6152236;23;20409;-78
2022/12/05 12:15:58;;;;;;;0.00;0.00;;;;;;;10.09;70.43;100983.63;6152142;23;20479;-78
2022/12/05 12:18:26;;;;;;;0.00;0.00;;;;;;;10.22;70.50;101004.31;6035615;23;20860;-82
2022/12/05 12:21:20;;;;;;;0.00;0.00;;;;;;;10.21;70.54;100994.47;6151350;23;20001;-81
2022/12/05 12:23:59;;;;;;;0.00;0.00;;;;;;;10.17;70.30;100985.09;6152437;23;20048;-80
2022/12/05 12:27:13;;;;;;;0.00;0.00;;;;;;;10.16;70.98;100994.38;6151916;23;20036;-81
2022/12/05 12:29:52;;;;;;;0.00;0.00;;;;;;;9.98;70.89;100970.88;6179814;23;20009;-79
2022/12/05 12:32:17;;;;;;;0.00;0.00;;;;;;;10.10;71.12;100984.44;6151569;23;20005;-80
2022/12/05 12:35:00;;;;;;;0.00;0.00;;;;;;;10.08;70.99;100992.06;6155265;23;20036;-78
2022/12/05 12:37:48;;;;;;;0.00;0.00;;;;;;;9.90;71.60;100988.50;6145862;23;20009;-78
2022/12/05 12:40:36;;;;;;;0.00;0.00;;;;;;;9.71;71.30;100978.88;6154973;23;20005;-79
2022/12/05 12:43:13;;;;;;;0.00;0.00;;;;;;;9.54;72.19;100955.09;6136743;23;20012;-77
2022/12/05 12:46:00;;;;;;;0.00;0.00;;;;;;;9.63;72.63;100982.84;6149334;23;20297;-79
2022/12/05 12:48:36;;;;;;;0.03;0.03;;;;;;;9.63;72.29;100984.75;6179998;23;20076;-77
2022/12/05 12:51:04;;;;;;;0.00;0.00;;;;;;;9.59;72.46;100968.88;6149092;23;20039;-80
2022/12/05 13:00:57;;;;;;;0.00;0.00;;;;;;;9.50;72.68;100964.84;6168889;23;20020;-82
2022/12/05 13:04:05;;;;;;;0.00;0.00;;;;;;;9.49;73.10;100952.31;6187896;23;19997;-81